Crouseville, Maine
Current Conditions -  °F | °C
As of 4:35 PM on Thursday 23 Oct 2014 (Local Time) from KPQI Reporting Station
Overcast Overcast  
Wind Chill: 43°   Ceiling: 5000
Heat Index: 48°   Visibility: 10mi
Dew Point: 37°   Wind: 14mph
Humidity: 66%   Direction: 20°NNE
Pressure: 30.03"   Gusts: 20mph
Location:  46.75°N, 68.1°W
Report Text: KPQI 232035Z AUTO 02012G17KT 10SM OVC050 09/03 A3003 RMK AO1
Loading
Personal Weather Stations






























Interactive Weather Map
Tropical Storm Tracking
New forecast layout! Learn more

10-Day Weather Forecast

Advertisements
Track Severe Weather on mobile